createdAt,value
2019-01-02T00:00:21.691Z,99.90
2019-01-02T00:02:48.005Z,99.90
2019-01-02T00:05:14.640Z,99.90
2019-01-02T00:07:41.249Z,99.90
2019-01-02T00:10:07.598Z,99.90
2019-01-02T00:12:34.034Z,99.90
2019-01-02T00:15:00.278Z,99.90
2019-01-02T00:17:26.513Z,99.90
2019-01-02T00:19:53.177Z,99.90
2019-01-02T00:22:19.404Z,99.90
2019-01-02T00:24:46.023Z,99.90
2019-01-02T00:27:12.265Z,99.90
2019-01-02T00:29:38.898Z,99.90
2019-01-02T00:32:05.131Z,99.90
2019-01-02T00:34:31.780Z,99.90
2019-01-02T00:36:58.080Z,99.90
2019-01-02T00:39:24.782Z,99.90
2019-01-02T00:41:50.992Z,99.90
2019-01-02T00:44:17.472Z,99.90
2019-01-02T00:46:43.866Z,99.90
2019-01-02T00:49:10.428Z,99.90
2019-01-02T00:51:36.663Z,99.90
2019-01-02T00:54:03.310Z,99.90
2019-01-02T00:56:29.578Z,99.90
2019-01-02T00:58:56.195Z,99.90
2019-01-02T01:01:22.577Z,99.90
2019-01-02T01:03:49.133Z,99.90
2019-01-02T01:06:15.441Z,99.90
2019-01-02T01:08:41.674Z,99.90
2019-01-02T01:11:08.127Z,99.90
2019-01-02T01:13:34.363Z,99.90
2019-01-02T01:16:01.022Z,99.90
2019-01-02T01:18:27.262Z,99.90
2019-01-02T01:20:54.036Z,99.90
2019-01-02T01:23:20.276Z,99.90
2019-01-02T01:25:46.549Z,99.90
2019-01-02T01:28:12.871Z,99.90
2019-01-02T01:30:39.151Z,99.90
2019-01-02T01:33:05.784Z,99.90
2019-01-02T01:35:32.039Z,99.90
2019-01-02T01:37:58.606Z,99.90
2019-01-02T01:40:24.881Z,99.90
2019-01-02T01:42:51.110Z,99.90
2019-01-02T01:45:18.015Z,99.90
2019-01-02T01:47:44.434Z,99.90
2019-01-02T01:50:11.055Z,99.90
2019-01-02T01:52:37.344Z,99.90
2019-01-02T01:55:06.163Z,99.90
2019-01-02T01:57:32.825Z,99.90
2019-01-02T01:59:59.056Z,99.90
2019-01-02T02:02:25.759Z,99.90
2019-01-02T02:04:52.076Z,99.90
2019-01-02T02:07:18.444Z,99.90
2019-01-02T02:09:44.670Z,99.90
2019-01-02T02:12:11.205Z,99.90
2019-01-02T02:14:37.771Z,99.90
2019-01-02T02:17:04.392Z,99.90
2019-01-02T02:19:30.636Z,99.90
2019-01-02T02:21:56.899Z,99.90
2019-01-02T02:24:23.158Z,99.90
2019-01-02T02:26:49.842Z,99.90
2019-01-02T02:29:16.096Z,99.90
2019-01-02T02:31:43.143Z,99.90
2019-01-02T02:34:09.379Z,99.90
2019-01-02T02:36:36.459Z,99.90
2019-01-02T02:39:05.740Z,99.90
2019-01-02T02:41:32.718Z,99.90
2019-01-02T02:43:59.401Z,99.90
2019-01-02T02:46:26.047Z,99.90
2019-01-02T02:48:52.315Z,99.90
2019-01-02T02:51:18.848Z,99.90
2019-01-02T02:53:45.557Z,99.90
2019-01-02T02:56:11.995Z,99.90
2019-01-02T02:58:38.580Z,99.90
2019-01-02T03:01:05.015Z,99.90
2019-01-02T03:03:31.672Z,99.90
2019-01-02T03:05:57.910Z,99.90
2019-01-02T03:08:24.174Z,99.90
2019-01-02T03:10:50.987Z,99.90
2019-01-02T03:13:17.771Z,99.90
2019-01-02T03:15:44.637Z,99.90
2019-01-02T03:18:11.610Z,99.90
2019-01-02T03:20:38.300Z,99.90
2019-01-02T03:23:04.552Z,99.90
2019-01-02T03:25:31.222Z,99.90
2019-01-02T03:27:57.870Z,99.90
2019-01-02T03:30:24.617Z,99.90
2019-01-02T03:32:51.249Z,99.90
2019-01-02T03:35:17.794Z,99.90
2019-01-02T03:37:44.397Z,99.90
2019-01-02T03:40:11.784Z,99.90
2019-01-02T03:42:37.971Z,99.90
2019-01-02T03:45:07.858Z,99.90
2019-01-02T03:47:34.455Z,99.90
2019-01-02T03:50:00.724Z,99.90
2019-01-02T03:52:26.990Z,99.90
2019-01-02T03:54:53.237Z,99.90
2019-01-02T03:57:19.460Z,99.90
2019-01-02T03:59:45.858Z,99.90
2019-01-02T04:02:12.076Z,99.90
2019-01-02T04:04:38.355Z,99.90
2019-01-02T04:07:04.585Z,99.90
2019-01-02T04:09:30.977Z,99.90
2019-01-02T04:11:57.198Z,99.90
2019-01-02T04:14:23.474Z,99.90
2019-01-02T04:16:49.781Z,99.90
2019-01-02T04:19:16.022Z,99.90
2019-01-02T04:21:42.246Z,99.90
2019-01-02T04:24:08.629Z,99.90
2019-01-02T04:26:34.859Z,99.90
2019-01-02T04:29:01.078Z,99.90
2019-01-02T04:31:27.340Z,99.90
2019-01-02T04:33:53.934Z,99.90
2019-01-02T04:36:20.200Z,99.90
2019-01-02T04:38:46.429Z,99.90
2019-01-02T04:41:12.708Z,99.90
2019-01-02T04:43:38.955Z,99.90
2019-01-02T04:46:05.210Z,99.90
2019-01-02T04:48:31.677Z,99.90
2019-01-02T04:50:57.952Z,99.90
2019-01-02T04:53:24.561Z,99.90
2019-01-02T04:55:50.831Z,99.90
2019-01-02T04:58:17.139Z,99.90
2019-01-02T05:00:43.406Z,99.90
2019-01-02T05:03:09.655Z,99.90
2019-01-02T05:05:35.922Z,99.90
2019-01-02T05:08:02.157Z,99.90
2019-01-02T05:10:28.427Z,99.90
2019-01-02T05:12:54.697Z,99.90
2019-01-02T05:15:20.940Z,99.90
2019-01-02T05:17:47.200Z,99.90
2019-01-02T05:20:13.664Z,99.90
2019-01-02T05:22:39.925Z,99.90
2019-01-02T05:25:07.221Z,99.90
2019-01-02T05:27:33.502Z,99.90
2019-01-02T05:29:59.850Z,99.90
2019-01-02T05:32:26.123Z,99.90
2019-01-02T05:34:52.386Z,99.90
2019-01-02T05:37:18.629Z,99.90
2019-01-02T05:39:45.177Z,99.90
2019-01-02T05:42:11.418Z,99.90
2019-01-02T05:44:37.650Z,99.90
2019-01-02T05:47:04.094Z,99.90
2019-01-02T05:49:30.323Z,99.90
2019-01-02T05:51:56.561Z,99.90
2019-01-02T05:54:22.920Z,99.90
2019-01-02T05:56:49.142Z,99.90
2019-01-02T05:59:15.709Z,99.90
2019-01-02T06:01:41.947Z,99.90
2019-01-02T06:04:08.217Z,99.90
2019-01-02T06:06:34.442Z,99.90
2019-01-02T06:09:00.708Z,99.90
2019-01-02T06:11:27.298Z,99.90
2019-01-02T06:13:53.570Z,99.90
2019-01-02T06:16:19.827Z,99.90
2019-01-02T06:18:46.079Z,99.90
2019-01-02T06:21:12.353Z,99.90
2019-01-02T06:23:38.627Z,99.90
2019-01-02T06:26:04.971Z,99.90
2019-01-02T06:28:31.383Z,99.90
2019-01-02T06:30:57.741Z,99.90
2019-01-02T06:33:23.987Z,99.90
2019-01-02T06:35:50.250Z,99.90
2019-01-02T06:38:16.496Z,99.90
2019-01-02T06:40:42.756Z,99.90
2019-01-02T06:43:09.459Z,99.90
2019-01-02T06:45:35.724Z,99.90
2019-01-02T06:48:01.975Z,99.90
2019-01-02T06:50:28.225Z,99.90
2019-01-02T06:52:54.491Z,99.90
2019-01-02T06:55:20.732Z,99.90
2019-01-02T06:57:47.070Z,99.90
2019-01-02T07:00:17.146Z,99.90
2019-01-02T07:02:43.393Z,99.90
2019-01-02T07:05:09.699Z,99.90
2019-01-02T07:07:35.918Z,99.90
2019-01-02T07:10:04.996Z,99.90
2019-01-02T07:12:31.309Z,99.90
2019-01-02T07:14:57.592Z,99.90
2019-01-02T07:17:25.780Z,99.90
2019-01-02T07:19:52.018Z,99.90
2019-01-02T07:22:18.310Z,99.90
2019-01-02T07:24:44.725Z,99.90
2019-01-02T07:27:11.338Z,99.90
2019-01-02T07:29:37.589Z,99.90
2019-01-02T07:32:03.837Z,99.90
2019-01-02T07:34:42.931Z,99.90
2019-01-02T07:37:36.088Z,99.90
2019-01-02T07:40:15.497Z,99.90
2019-01-02T07:43:04.020Z,99.90
2019-01-02T07:45:52.454Z,99.90
2019-01-02T07:48:44.050Z,99.90
2019-01-02T07:51:26.432Z,99.90
2019-01-02T07:54:02.331Z,99.90
2019-01-02T07:57:04.275Z,99.90
2019-01-02T07:59:51.159Z,99.90
2019-01-02T08:02:39.001Z,99.90
2019-01-02T08:05:14.864Z,99.90
2019-01-02T08:07:50.766Z,99.90
2019-01-02T08:10:27.385Z,99.90
2019-01-02T08:13:12.931Z,99.90
2019-01-02T08:15:54.522Z,99.90
2019-01-02T08:18:30.059Z,99.90
2019-01-02T08:21:09.473Z,99.90
2019-01-02T08:24:02.567Z,99.90
2019-01-02T08:26:41.528Z,99.90
2019-01-02T08:29:20.893Z,99.90
2019-01-02T08:31:57.577Z,99.90
2019-01-02T08:34:33.961Z,99.90
2019-01-02T08:37:11.208Z,99.90
2019-01-02T08:39:50.081Z,99.90
2019-01-02T08:42:37.585Z,99.90
2019-01-02T08:45:43.004Z,99.90
2019-01-02T08:48:25.116Z,99.90
2019-01-02T08:50:55.207Z,99.90
2019-01-02T08:53:46.798Z,99.90
2019-01-02T08:56:33.675Z,99.90
2019-01-02T08:59:09.852Z,99.90
2019-01-02T09:01:55.356Z,99.90
2019-01-02T09:04:31.471Z,99.90
2019-01-02T09:07:21.375Z,99.90
2019-01-02T09:10:20.389Z,99.90
2019-01-02T09:12:53.340Z,99.90
2019-01-02T09:15:29.743Z,99.90
2019-01-02T09:17:59.907Z,99.90
2019-01-02T09:20:55.266Z,99.90
2019-01-02T09:23:42.122Z,99.90
2019-01-02T09:26:29.259Z,99.90
2019-01-02T09:29:17.231Z,99.90
2019-01-02T09:32:13.137Z,99.90
2019-01-02T09:34:49.009Z,99.90
2019-01-02T09:37:45.032Z,99.90
2019-01-02T09:40:49.108Z,99.90
2019-01-02T09:43:25.007Z,99.90
2019-01-02T09:46:26.774Z,99.90
2019-01-02T09:49:11.723Z,99.90
2019-01-02T09:52:18.285Z,99.90
2019-01-02T09:54:54.655Z,99.90
2019-01-02T09:57:44.621Z,99.90
2019-01-02T10:00:26.610Z,99.90
2019-01-02T10:03:05.883Z,99.90
2019-01-02T10:05:41.948Z,99.90
2019-01-02T10:08:24.108Z,99.90
2019-01-02T10:11:06.341Z,99.90
2019-01-02T10:13:42.795Z,99.90
2019-01-02T10:16:28.285Z,99.90
2019-01-02T10:19:13.038Z,99.90
2019-01-02T10:21:58.191Z,99.90
2019-01-02T10:24:47.848Z,99.90
2019-01-02T10:27:29.983Z,99.90
2019-01-02T10:30:04.688Z,99.90
2019-01-02T10:32:34.709Z,99.90
2019-01-02T10:35:10.503Z,99.90
2019-01-02T10:37:59.190Z,99.90
2019-01-02T10:40:32.205Z,99.90
2019-01-02T10:43:07.731Z,99.90
2019-01-02T10:46:02.558Z,99.90
2019-01-02T10:48:53.693Z,99.90
2019-01-02T10:51:35.292Z,99.90
2019-01-02T10:54:19.917Z,99.90
2019-01-02T10:56:59.322Z,99.90
2019-01-02T10:59:52.811Z,99.90
2019-01-02T11:02:28.327Z,99.90
2019-01-02T11:05:07.743Z,99.90
2019-01-02T11:07:40.774Z,99.90
2019-01-02T11:10:38.549Z,99.90
2019-01-02T11:13:25.171Z,99.90
2019-01-02T11:16:16.927Z,99.90
2019-01-02T11:19:05.327Z,99.90
2019-01-02T11:21:37.890Z,99.90
2019-01-02T11:24:29.369Z,99.90
2019-01-02T11:27:25.302Z,99.90
2019-01-02T11:30:01.311Z,99.20
2019-01-02T11:32:52.053Z,97.20
2019-01-02T11:35:42.272Z,90.10
2019-01-02T11:38:24.924Z,57.80
2019-01-02T11:41:07.371Z,45.90
2019-01-02T11:43:43.280Z,44.90
2019-01-02T11:46:09.689Z,46.90
2019-01-02T11:48:36.342Z,48.70
2019-01-02T11:51:04.127Z,41.90
2019-01-02T11:53:30.581Z,40.60
2019-01-02T11:55:56.859Z,36.90
2019-01-02T11:58:23.159Z,34.00
2019-01-02T12:00:49.389Z,31.50
2019-01-02T12:03:15.644Z,31.50
2019-01-02T12:05:41.943Z,30.70
2019-01-02T12:08:08.203Z,28.60
2019-01-02T12:10:37.250Z,28.20
2019-01-02T12:13:03.923Z,27.80
2019-01-02T12:15:30.285Z,27.50
2019-01-02T12:17:56.892Z,27.50
2019-01-02T12:20:23.122Z,28.40
2019-01-02T12:22:49.475Z,28.50
2019-01-02T12:25:15.846Z,28.50
2019-01-02T12:27:42.543Z,29.20
2019-01-02T12:30:10.934Z,29.80
2019-01-02T12:32:37.490Z,29.60
2019-01-02T12:35:05.272Z,28.00
2019-01-02T12:37:31.938Z,27.80
2019-01-02T12:39:58.230Z,27.40
2019-01-02T12:42:24.461Z,28.00
2019-01-02T12:44:50.728Z,28.60
2019-01-02T12:47:16.985Z,31.40
2019-01-02T12:49:43.221Z,34.80
2019-01-02T12:52:09.473Z,37.10
2019-01-02T12:54:35.723Z,40.00
2019-01-02T12:57:02.204Z,42.50
2019-01-02T12:59:28.774Z,44.90
2019-01-02T13:02:04.792Z,45.90
2019-01-02T13:04:37.973Z,46.30
2019-01-02T13:07:20.281Z,43.20
2019-01-02T13:09:50.372Z,41.20
2019-01-02T13:12:43.468Z,35.50
2019-01-02T13:15:49.717Z,34.70
2019-01-02T13:18:25.918Z,37.20
2019-01-02T13:20:59.119Z,39.50
2019-01-02T13:23:32.115Z,41.70
2019-01-02T13:26:05.533Z,43.40
2019-01-02T13:28:44.121Z,45.90
2019-01-02T13:31:23.406Z,47.10
2019-01-02T13:33:59.348Z,48.70
2019-01-02T13:36:44.547Z,50.60
2019-01-02T13:39:14.612Z,52.40
2019-01-02T13:41:44.666Z,54.80
2019-01-02T13:44:23.800Z,56.00
2019-01-02T13:47:14.883Z,55.00
2019-01-02T13:49:57.017Z,54.50
2019-01-02T13:52:23.277Z,54.60
2019-01-02T13:54:51.124Z,56.80
2019-01-02T13:57:17.400Z,58.60
2019-01-02T13:59:43.650Z,60.60
2019-01-02T14:02:09.905Z,65.60
2019-01-02T14:04:36.258Z,71.10
2019-01-02T14:07:02.514Z,80.20
2019-01-02T14:09:28.744Z,84.80
2019-01-02T14:11:55.008Z,90.00
2019-01-02T14:14:21.260Z,92.50
2019-01-02T14:16:47.582Z,94.30
2019-01-02T14:19:14.188Z,96.80
2019-01-02T14:21:40.427Z,98.00
2019-01-02T14:24:06.719Z,99.90
2019-01-02T14:26:32.944Z,99.90
2019-01-02T14:28:59.210Z,99.90
2019-01-02T14:31:25.453Z,99.90
2019-01-02T14:33:52.074Z,99.90
2019-01-02T14:36:18.648Z,99.90
2019-01-02T14:38:44.918Z,99.90
2019-01-02T14:41:11.257Z,99.90
2019-01-02T14:43:37.528Z,99.90
2019-01-02T14:46:03.769Z,99.90
2019-01-02T14:48:30.380Z,99.90
2019-01-02T14:50:56.607Z,99.90
2019-01-02T14:53:22.908Z,99.90
2019-01-02T14:55:49.169Z,99.90
2019-01-02T14:58:15.434Z,99.60
2019-01-02T15:00:41.694Z,99.30
2019-01-02T15:03:08.087Z,97.60
2019-01-02T15:05:34.329Z,92.70
2019-01-02T15:08:00.610Z,91.10
2019-01-02T15:10:26.878Z,91.20
2019-01-02T15:12:53.153Z,90.80
2019-01-02T15:15:19.365Z,91.80
2019-01-02T15:17:45.600Z,91.80
2019-01-02T15:20:12.063Z,92.60
2019-01-02T15:22:38.291Z,94.40
2019-01-02T15:25:06.014Z,95.30
2019-01-02T15:27:32.242Z,97.40
2019-01-02T15:29:58.853Z,98.00
2019-01-02T15:32:25.098Z,99.90
2019-01-02T15:34:51.372Z,97.90
2019-01-02T15:37:17.610Z,98.00
2019-01-02T15:39:43.895Z,98.40
2019-01-02T15:42:10.123Z,97.80
2019-01-02T15:44:36.396Z,97.20
2019-01-02T15:47:08.321Z,95.20
2019-01-02T15:49:30.713Z,96.00
2019-01-02T15:51:56.963Z,95.20
2019-01-02T15:54:23.293Z,92.80
2019-01-02T15:56:49.511Z,83.40
2019-01-02T15:59:15.747Z,79.60
2019-01-02T16:01:42.008Z,76.40
2019-01-02T16:04:08.249Z,77.20
2019-01-02T16:06:34.519Z,71.90
2019-01-02T16:09:00.771Z,59.30
2019-01-02T16:11:27.054Z,56.60
2019-01-02T16:13:53.608Z,59.30
2019-01-02T16:16:20.584Z,63.50
2019-01-02T16:18:46.844Z,64.80
2019-01-02T16:21:13.105Z,68.40
2019-01-02T16:23:39.373Z,70.40
2019-01-02T16:26:05.633Z,73.80
2019-01-02T16:28:31.874Z,74.40
2019-01-02T16:30:58.431Z,71.80
2019-01-02T16:33:24.682Z,72.30
2019-01-02T16:35:50.952Z,74.30
2019-01-02T16:38:17.177Z,75.40
2019-01-02T16:40:43.504Z,75.60
2019-01-02T16:43:09.748Z,77.10
2019-01-02T16:45:36.315Z,79.10
2019-01-02T16:48:02.591Z,82.40
2019-01-02T16:50:28.821Z,79.80
2019-01-02T16:52:55.089Z,80.10
2019-01-02T16:55:21.327Z,80.30
2019-01-02T16:57:47.593Z,82.20
2019-01-02T17:00:13.827Z,83.60
2019-01-02T17:02:40.104Z,87.20
2019-01-02T17:05:06.465Z,89.30
2019-01-02T17:07:32.776Z,91.30
2019-01-02T17:09:59.364Z,92.20
2019-01-02T17:12:25.638Z,93.50
2019-01-02T17:14:52.060Z,94.90
2019-01-02T17:17:18.278Z,95.00
2019-01-02T17:19:44.517Z,95.80
2019-01-02T17:22:10.787Z,96.10
2019-01-02T17:24:37.059Z,96.80
2019-01-02T17:27:03.467Z,97.50
2019-01-02T17:29:29.974Z,98.10
2019-01-02T17:31:56.526Z,98.30
2019-01-02T17:34:22.806Z,98.40
2019-01-02T17:36:49.164Z,98.20
2019-01-02T17:39:15.398Z,98.60
2019-01-02T17:41:41.645Z,98.90
2019-01-02T17:44:07.912Z,98.80
2019-01-02T17:46:34.293Z,99.60
2019-01-02T17:49:00.578Z,99.90
2019-01-02T17:51:26.831Z,99.90
2019-01-02T17:53:53.528Z,99.90
2019-01-02T17:56:19.779Z,99.90
2019-01-02T17:58:46.048Z,99.90
2019-01-02T18:01:12.292Z,99.90
2019-01-02T18:03:38.582Z,99.90
2019-01-02T18:06:10.902Z,99.90
2019-01-02T18:08:33.078Z,99.90
2019-01-02T18:10:59.690Z,99.90
2019-01-02T18:13:26.334Z,99.90
2019-01-02T18:15:52.699Z,99.90
2019-01-02T18:18:18.952Z,99.90
2019-01-02T18:20:45.191Z,99.90
2019-01-02T18:23:11.468Z,99.90
2019-01-02T18:25:37.746Z,99.90
2019-01-02T18:28:04.392Z,99.90
2019-01-02T18:30:31.198Z,99.90
2019-01-02T18:32:57.416Z,99.90
2019-01-02T18:35:23.988Z,99.90
2019-01-02T18:37:50.249Z,99.90
2019-01-02T18:40:16.499Z,99.90
2019-01-02T18:42:43.092Z,99.90
2019-01-02T18:45:09.425Z,99.90
2019-01-02T18:47:35.679Z,99.90
2019-01-02T18:50:02.451Z,99.90
2019-01-02T18:52:28.692Z,99.90
2019-01-02T18:54:54.955Z,99.90
2019-01-02T18:57:21.188Z,99.90
2019-01-02T18:59:47.460Z,99.90
2019-01-02T19:02:13.710Z,99.90
2019-01-02T19:04:39.983Z,99.90
2019-01-02T19:07:06.223Z,99.90
2019-01-02T19:09:32.502Z,99.90
2019-01-02T19:11:59.686Z,99.90
2019-01-02T19:14:25.955Z,99.90
2019-01-02T19:16:52.184Z,99.90
2019-01-02T19:19:18.472Z,99.90
2019-01-02T19:21:44.785Z,99.90
2019-01-02T19:24:11.108Z,99.90
2019-01-02T19:26:37.428Z,99.90
2019-01-02T19:29:03.589Z,99.90
2019-01-02T19:31:29.856Z,99.90
2019-01-02T19:33:56.099Z,99.90
2019-01-02T19:36:40.811Z,99.90
2019-01-02T19:39:07.153Z,99.90
2019-01-02T19:41:33.405Z,99.90
2019-01-02T19:43:59.649Z,99.90
2019-01-02T19:46:25.943Z,99.90
2019-01-02T19:48:52.172Z,99.90
2019-01-02T19:51:18.464Z,99.90
2019-01-02T19:53:44.701Z,99.90
2019-01-02T19:56:10.959Z,99.90
2019-01-02T19:58:37.390Z,99.90
2019-01-02T20:01:03.650Z,99.90
2019-01-02T20:03:30.278Z,99.90
2019-01-02T20:05:56.560Z,99.90
2019-01-02T20:08:22.799Z,99.90
2019-01-02T20:10:49.341Z,99.90
2019-01-02T20:13:15.904Z,99.90
2019-01-02T20:15:42.205Z,99.90
2019-01-02T20:18:08.746Z,99.90
2019-01-02T20:20:34.983Z,99.90
2019-01-02T20:23:01.257Z,99.90
2019-01-02T20:25:27.849Z,99.90
2019-01-02T20:27:54.120Z,99.90
2019-01-02T20:30:20.380Z,99.90
2019-01-02T20:32:46.640Z,99.90
2019-01-02T20:35:12.930Z,99.90
2019-01-02T20:37:39.205Z,99.90
2019-01-02T20:40:06.476Z,99.90
2019-01-02T20:42:33.111Z,99.90
2019-01-02T20:44:59.358Z,99.90
2019-01-02T20:47:25.628Z,99.90
2019-01-02T20:49:51.876Z,99.90
2019-01-02T20:52:18.152Z,99.90
2019-01-02T20:54:44.380Z,99.90
2019-01-02T20:57:10.974Z,99.90
2019-01-02T20:59:37.244Z,99.90
2019-01-02T21:02:03.489Z,99.90
2019-01-02T21:04:29.725Z,99.90
2019-01-02T21:06:55.993Z,99.90
2019-01-02T21:09:22.235Z,99.90
2019-01-02T21:11:48.499Z,99.90
2019-01-02T21:14:14.777Z,99.90
2019-01-02T21:16:41.015Z,99.90
2019-01-02T21:19:07.301Z,99.90
2019-01-02T21:21:33.508Z,99.90
2019-01-02T21:23:59.807Z,99.90
2019-01-02T21:26:26.067Z,99.90
2019-01-02T21:28:52.424Z,99.90
2019-01-02T21:31:18.663Z,99.90
2019-01-02T21:33:45.222Z,99.90
2019-01-02T21:36:11.468Z,99.90
2019-01-02T21:38:38.112Z,99.90
2019-01-02T21:41:05.002Z,99.90
2019-01-02T21:43:31.348Z,99.90
2019-01-02T21:45:57.636Z,99.90
2019-01-02T21:48:23.860Z,99.90
2019-01-02T21:50:50.097Z,99.90
2019-01-02T21:53:16.554Z,99.90
2019-01-02T21:55:42.824Z,99.90
2019-01-02T22:01:37.518Z,99.90
2019-01-02T22:04:03.775Z,99.90
2019-01-02T22:06:30.023Z,99.90
2019-01-02T22:08:56.296Z,99.90
2019-01-02T22:11:23.074Z,99.90
2019-01-02T22:13:49.347Z,99.90
2019-01-02T22:16:15.933Z,99.90
2019-01-02T22:18:42.184Z,99.90
2019-01-02T22:21:08.827Z,99.90
2019-01-02T22:23:35.061Z,99.90
2019-01-02T22:26:01.358Z,99.90
2019-01-02T22:28:27.623Z,99.90
2019-01-02T22:30:53.898Z,99.90
2019-01-02T22:33:20.131Z,99.90
2019-01-02T22:35:46.393Z,99.90
2019-01-02T22:38:12.627Z,99.90
2019-01-02T22:40:38.923Z,99.90
2019-01-02T22:43:05.168Z,99.90
2019-01-02T22:45:31.441Z,99.90
2019-01-02T22:47:57.681Z,99.90
2019-01-02T22:50:24.112Z,99.90
2019-01-02T22:52:50.338Z,99.90
2019-01-02T22:55:16.635Z,99.90
2019-01-02T22:58:04.850Z,99.90
2019-01-02T23:00:39.299Z,99.90
2019-01-02T23:03:07.938Z,99.90
2019-01-02T23:05:38.880Z,99.90
2019-01-02T23:08:22.102Z,99.90
2019-01-02T23:11:02.600Z,99.90
2019-01-02T23:13:33.511Z,99.90
2019-01-02T23:16:01.865Z,99.90
2019-01-02T23:18:35.814Z,99.90
2019-01-02T23:21:19.281Z,99.90
2019-01-02T23:23:53.084Z,99.90
2019-01-02T23:26:21.694Z,99.90
2019-01-02T23:28:49.928Z,99.90
2019-01-02T23:31:18.259Z,99.90
2019-01-02T23:33:47.097Z,99.90
2019-01-02T23:36:17.929Z,99.90
2019-01-02T23:39:02.673Z,99.90
2019-01-02T23:41:47.529Z,99.90
2019-01-02T23:44:18.445Z,99.90
2019-01-02T23:47:04.809Z,99.90
2019-01-02T23:49:50.392Z,99.90
2019-01-02T23:52:30.778Z,99.90
2019-01-02T23:55:07.927Z,99.90
2019-01-02T23:57:36.291Z,99.90
